Time;durP1;ratioP1;P1;durP2;ratioP2;P2;SDS_P1;SDS_P2;PMS_P1;PMS_P2;Temp;Humidity;BMP_temperature;BMP_pressure;BME280_temperature;BME280_humidity;BME280_pressure;Samples;Min_cycle;Max_cycle;Signal;HPM_P1;HPM_P2
2021/11/08 00:01:45;;;;;;;1999.90;999.90;;;;;;;9.50;74.89;100861.88;15789175;28;20527;-61
2021/11/08 00:09:18;;;;;;;1999.90;999.90;;;;;;;9.41;76.53;100874.13;15775546;28;20039;-62
2021/11/08 00:17:02;;;;;;;1999.90;999.90;;;;;;;9.38;78.14;100867.22;15724611;28;20037;-62
2021/11/08 00:24:37;;;;;;;;;;;;;;;9.37;78.19;100882.28;15733634;28;20114;-61
2021/11/08 00:32:11;;;;;;;1999.90;999.90;;;;;;;9.55;78.89;100883.19;15759894;28;19920;-61
2021/11/08 00:39:44;;;;;;;1999.90;999.90;;;;;;;9.53;79.34;100874.31;15742852;28;20094;-62
2021/11/08 00:47:19;;;;;;;1999.90;999.90;;;;;;;9.22;81.33;100883.53;15763393;28;20135;-61
2021/11/08 00:54:52;;;;;;;1999.90;999.90;;;;;;;9.25;81.22;100885.66;15744192;28;20047;-62
2021/11/08 01:02:29;;;;;;;1999.90;999.90;;;;;;;9.21;81.59;100889.41;15748415;28;20044;-63
2021/11/08 01:10:03;;;;;;;1999.90;999.90;;;;;;;9.28;81.61;100898.16;15783941;28;20044;-62
2021/11/08 01:17:38;;;;;;;1999.90;999.90;;;;;;;9.38;81.16;100902.59;15726844;28;20064;-63
2021/11/08 01:25:12;;;;;;;1999.90;999.90;;;;;;;9.30;81.95;100915.34;15766901;28;20064;-63
2021/11/08 01:32:54;;;;;;;1999.90;999.90;;;;;;;9.38;81.57;100911.78;15752687;28;20033;-61
2021/11/08 01:40:27;;;;;;;1999.90;999.90;;;;;;;9.55;81.37;100925.78;15780387;28;20044;-62
2021/11/08 01:48:01;;;;;;;1999.90;999.90;;;;;;;9.45;81.52;100934.41;15782110;28;20037;-63
2021/11/08 01:55:34;;;;;;;1999.90;999.90;;;;;;;9.44;81.46;100943.09;15778071;28;20033;-63
2021/11/08 02:03:10;;;;;;;1999.90;999.90;;;;;;;9.58;81.26;100940.19;15707850;28;20433;-62
2021/11/08 02:10:43;;;;;;;1999.90;999.90;;;;;;;9.42;81.58;100950.97;15727697;28;20847;-62
2021/11/08 02:18:19;;;;;;;1999.90;999.90;;;;;;;9.40;82.17;100950.47;15748957;28;20417;-63
2021/11/08 02:25:56;;;;;;;1999.90;999.90;;;;;;;9.43;81.88;100955.38;15771919;28;20051;-62
2021/11/08 02:33:29;;;;;;;1999.90;999.90;;;;;;;9.54;81.78;100959.53;15733934;28;20398;-62
2021/11/08 02:41:03;;;;;;;1999.90;999.90;;;;;;;9.64;81.80;100969.59;15755059;28;20139;-62
2021/11/08 02:48:38;;;;;;;1999.90;999.90;;;;;;;9.77;82.03;100966.69;15758409;28;20079;-61
2021/11/08 02:56:13;;;;;;;1999.90;999.90;;;;;;;9.59;83.33;100986.44;15777536;28;22455;-62
2021/11/08 03:03:48;;;;;;;1999.90;999.90;;;;;;;9.17;84.60;100995.03;15795880;28;20128;-60
2021/11/08 03:11:24;;;;;;;1999.90;999.90;;;;;;;9.75;83.12;100990.44;15767650;28;20052;-61
2021/11/08 03:18:58;;;;;;;1999.90;999.90;;;;;;;9.59;83.22;101000.34;15750176;28;20040;-61
2021/11/08 03:26:40;;;;;;;1999.90;999.90;;;;;;;9.74;83.27;100999.97;15770622;28;20068;-62
2021/11/08 03:34:13;;;;;;;1999.90;999.90;;;;;;;9.72;83.16;101010.59;15798904;28;20055;-62
2021/11/08 03:41:47;;;;;;;1999.90;999.90;;;;;;;9.57;83.47;101016.56;15777014;28;20052;-62
2021/11/08 03:49:20;;;;;;;1999.90;999.90;;;;;;;9.70;82.69;101040.75;15771722;28;20429;-62
2021/11/08 03:56:54;;;;;;;1999.90;999.90;;;;;;;9.72;82.76;101044.06;15756403;28;20044;-63
2021/11/08 04:04:27;;;;;;;1999.90;999.90;;;;;;;9.74;82.68;101053.72;15748588;28;20048;-62
2021/11/08 04:12:01;;;;;;;1999.90;999.90;;;;;;;9.72;83.10;101063.56;15738106;28;20051;-62
2021/11/08 04:19:34;;;;;;;1999.90;999.90;;;;;;;9.92;82.06;101064.97;15741476;28;20059;-62
2021/11/08 04:27:09;;;;;;;;;;;;;;;10.16;81.66;101072.97;15760895;28;20052;-62
2021/11/08 04:34:44;;;;;;;1999.90;999.90;;;;;;;9.83;82.77;101093.63;15742037;28;19920;-61
2021/11/08 04:42:23;;;;;;;1999.90;999.90;;;;;;;9.94;82.47;101096.97;15722550;28;20421;-62
2021/11/08 04:50:04;;;;;;;1999.90;999.90;;;;;;;10.09;81.61;101096.53;15797538;28;20056;-61
2021/11/08 04:57:53;;;;;;;1999.90;999.90;;;;;;;10.19;81.29;101100.19;15774050;28;20044;-62
2021/11/08 05:21:28;;;;;;;1999.90;999.90;;;;;;;9.91;81.91;101135.81;15772756;28;20493;-62
2021/11/08 05:36:54;;;;;;;1999.90;999.90;;;;;;;10.18;80.17;101157.94;15790178;28;20041;-62
2021/11/08 05:44:29;;;;;;;1999.90;999.90;;;;;;;10.30;79.94;101169.34;15758093;28;20128;-59
2021/11/08 05:52:03;;;;;;;1999.90;999.90;;;;;;;10.15;80.21;101177.28;15754771;28;22573;-61
2021/11/08 05:59:52;;;;;;;1999.90;999.90;;;;;;;10.32;79.65;101194.16;15733742;28;20068;-61
2021/11/08 06:54:31;;;;;;;1999.90;999.90;;;;;;;10.17;79.97;101280.97;15688294;28;20033;-62
2021/11/08 07:02:05;;;;;;;;;;;;;;;10.57;78.63;101304.25;15665100;28;20045;-58
2021/11/08 07:09:39;;;;;;;1999.90;999.90;;;;;;;10.41;78.82;101314.97;15662736;28;20020;-59
2021/11/08 07:17:13;;;;;;;1999.90;999.90;;;;;;;10.48;78.74;101312.56;15674333;28;20076;-55
2021/11/08 07:24:46;;;;;;;1999.90;999.90;;;;;;;10.43;78.27;101320.25;15669749;28;20049;-60
2021/11/08 07:32:24;;;;;;;1999.90;999.90;;;;;;;10.61;77.78;101333.97;15669422;28;20045;-60
2021/11/08 07:39:57;;;;;;;1999.90;999.90;;;;;;;11.44;75.50;101345.41;15673774;28;20651;-58
2021/11/08 07:47:31;;;;;;;1999.90;999.90;;;;;;;11.62;74.32;101343.50;15676014;28;20045;-58
2021/11/08 07:55:05;;;;;;;1999.90;999.90;;;;;;;11.57;74.50;101358.47;15666133;28;20055;-59
2021/11/08 08:02:39;;;;;;;1999.90;999.90;;;;;;;11.53;74.21;101365.00;15673741;28;20047;-57
2021/11/08 08:10:12;;;;;;;1999.90;999.90;;;;;;;11.57;73.92;101368.81;15672234;28;20094;-54
2021/11/08 08:17:47;;;;;;;1999.90;999.90;;;;;;;11.40;74.04;101379.91;15670747;28;20052;-57
2021/11/08 08:25:20;;;;;;;1999.90;999.90;;;;;;;11.69;73.24;101385.78;15670236;28;20041;-57
2021/11/08 08:32:56;;;;;;;1999.90;999.90;;;;;;;11.70;72.40;101381.84;15671295;28;20095;-59
2021/11/08 08:40:28;;;;;;;1999.90;999.90;;;;;;;11.83;72.03;101394.06;15671545;28;20498;-61
2021/11/08 08:48:02;;;;;;;1999.90;999.90;;;;;;;11.15;74.08;101400.97;15667060;28;20494;-57
2021/11/08 08:55:38;;;;;;;1999.90;999.90;;;;;;;11.12;74.26;101413.63;15652075;28;20071;-61
2021/11/08 09:03:12;;;;;;;1999.90;999.90;;;;;;;11.16;74.25;101430.59;15633299;28;20041;-59
2021/11/08 09:10:45;;;;;;;1999.90;999.90;;;;;;;11.76;71.82;101438.41;15639318;28;20045;-58
2021/11/08 09:18:19;;;;;;;1999.90;999.90;;;;;;;11.67;72.03;101449.59;15671622;28;20144;-58
2021/11/08 09:25:51;;;;;;;1999.90;999.90;;;;;;;12.37;69.72;101445.00;15671650;28;20106;-57
2021/11/08 09:33:26;;;;;;;1999.90;999.90;;;;;;;11.81;71.08;101460.69;15648480;28;20033;-58
2021/11/08 09:40:59;;;;;;;1999.90;999.90;;;;;;;12.35;69.21;101461.31;15662148;28;20131;-58
2021/11/08 09:48:38;;;;;;;1999.90;999.90;;;;;;;12.51;69.46;101473.69;15667530;28;20037;-60
2021/11/08 09:56:13;;;;;;;1999.90;999.90;;;;;;;12.32;68.51;101470.38;15671675;28;20055;-59
2021/11/08 10:03:49;;;;;;;1999.90;999.90;;;;;;;12.88;66.82;101469.41;15679824;28;20069;-60
2021/11/08 10:11:23;;;;;;;1999.90;999.90;;;;;;;13.20;66.34;101478.47;15679475;28;20057;-58
2021/11/08 10:19:00;;;;;;;1999.90;999.90;;;;;;;12.99;66.97;101486.69;15672965;28;20099;-58
2021/11/08 10:26:36;;;;;;;1999.90;999.90;;;;;;;14.78;61.57;101489.44;15659700;28;20087;-57
2021/11/08 10:34:11;;;;;;;1999.90;999.90;;;;;;;16.33;57.09;101492.50;15659269;28;20055;-56
2021/11/08 10:41:45;;;;;;;1999.90;999.90;;;;;;;15.78;57.84;101505.19;15666360;28;20037;-54
2021/11/08 10:49:22;;;;;;;1999.90;999.90;;;;;;;17.16;53.91;101511.59;15670049;28;20046;-57
2021/11/08 10:56:57;;;;;;;1999.90;999.90;;;;;;;14.69;59.61;101512.81;15671712;28;20041;-57
2021/11/08 11:04:33;;;;;;;1999.90;999.90;;;;;;;14.13;61.22;101511.31;15671821;28;20037;-55
2021/11/08 11:12:10;;;;;;;1999.90;999.90;;;;;;;13.69;63.05;101515.44;15677023;28;20059;-57
2021/11/08 11:19:45;;;;;;;1999.90;999.90;;;;;;;13.63;63.50;101506.38;15675799;28;20041;-54
2021/11/08 11:27:31;;;;;;;1999.90;999.90;;;;;;;13.62;63.72;101520.75;15673851;28;20158;-59
2021/11/08 11:35:12;;;;;;;1999.90;999.90;;;;;;;13.47;64.34;101520.13;15673799;28;20041;-58
2021/11/08 11:42:47;;;;;;;1999.90;999.90;;;;;;;13.22;64.33;101520.97;15674504;28;20098;-59
2021/11/08 11:50:22;;;;;;;1999.90;999.90;;;;;;;13.08;64.52;101525.91;15673205;28;20067;-60
2021/11/08 11:57:56;;;;;;;1999.90;999.90;;;;;;;13.62;63.32;101524.38;15673015;28;20550;-59
2021/11/08 12:05:30;;;;;;;1999.90;999.90;;;;;;;13.58;63.22;101510.22;15669493;28;20123;-59
2021/11/08 12:13:14;;;;;;;1999.90;999.90;;;;;;;14.17;61.52;101523.50;15672757;28;20045;-58
2021/11/08 12:20:52;;;;;;;1999.90;999.90;;;;;;;14.04;61.58;101528.19;15663516;28;20098;-57
2021/11/08 12:28:27;;;;;;;1999.90;999.90;;;;;;;13.29;63.24;101513.72;15651902;28;20402;-58
2021/11/08 12:36:14;;;;;;;1999.90;999.90;;;;;;;13.56;62.46;101509.72;15671859;28;20151;-58
2021/11/08 12:43:53;;;;;;;1999.90;999.90;;;;;;;14.97;57.40;101510.25;15648803;28;20065;-54
2021/11/08 12:51:31;;;;;;;1999.90;999.90;;;;;;;14.35;58.85;101499.78;15744530;22;20636;-57
2021/11/08 12:59:13;;;;;;;1999.90;999.90;;;;;;;14.30;59.33;101514.03;15735621;28;20457;-62
2021/11/08 13:06:48;;;;;;;1999.90;999.90;;;;;;;13.49;60.52;101520.63;15715974;28;20551;-62
2021/11/08 13:14:24;;;;;;;1999.90;999.90;;;;;;;13.65;60.29;101532.13;15730558;28;20101;-59
2021/11/08 13:21:58;;;;;;;1999.90;999.90;;;;;;;13.58;60.39;101524.22;15718323;28;20044;-61
2021/11/08 13:29:32;;;;;;;1999.90;999.90;;;;;;;13.60;60.63;101532.31;15739862;28;20047;-62
2021/11/08 13:37:06;;;;;;;1999.90;999.90;;;;;;;13.63;60.30;101528.81;15727156;28;20056;-57
2021/11/08 13:44:39;;;;;;;1999.90;999.90;;;;;;;13.51;60.67;101543.53;15682096;28;20044;-60
2021/11/08 13:52:13;;;;;;;1999.90;999.90;;;;;;;13.73;60.41;101541.66;15739165;28;20040;-60
2021/11/08 13:59:47;;;;;;;1999.90;999.90;;;;;;;13.60;60.22;101546.31;15707945;28;20105;-58
2021/11/08 14:07:22;;;;;;;1999.90;999.90;;;;;;;13.33;60.64;101555.09;15741534;28;20044;-59
2021/11/08 14:14:57;;;;;;;1999.90;999.90;;;;;;;13.70;60.20;101568.41;15746097;28;20543;-63
2021/11/08 14:22:33;;;;;;;1999.90;999.90;;;;;;;13.28;60.97;101575.72;15728419;28;20055;-61
2021/11/08 14:30:18;;;;;;;1999.90;999.90;;;;;;;13.41;62.24;101594.34;15740333;28;20048;-59
2021/11/08 14:38:01;;;;;;;1999.90;999.90;;;;;;;13.51;59.83;101601.59;15701291;28;20473;-61
2021/11/08 14:45:33;;;;;;;1999.90;999.90;;;;;;;13.49;60.29;101592.69;15722998;28;20048;-56
2021/11/08 14:53:09;;;;;;;1999.90;999.90;;;;;;;12.93;61.68;101600.91;15742495;28;20040;-61
2021/11/08 15:00:47;;;;;;;1999.90;999.90;;;;;;;13.42;60.87;101595.16;15709708;28;20037;-61
2021/11/08 15:08:23;;;;;;;1999.90;999.90;;;;;;;13.23;61.52;101599.16;15716651;28;20105;-59
2021/11/08 15:16:02;;;;;;;1999.90;999.90;;;;;;;12.93;62.51;101605.69;15710441;28;20078;-55
2021/11/08 15:23:39;;;;;;;1999.90;999.90;;;;;;;13.05;61.95;101608.66;15717028;28;20114;-58
2021/11/08 15:31:15;;;;;;;1999.90;999.90;;;;;;;12.91;62.77;101620.00;15721052;28;20086;-61
2021/11/08 15:38:50;;;;;;;1999.90;999.90;;;;;;;12.77;63.24;101618.50;15698371;28;20117;-59
2021/11/08 15:46:24;;;;;;;1999.90;999.90;;;;;;;12.69;63.44;101629.34;15717026;28;20099;-58
2021/11/08 15:53:59;;;;;;;1999.90;999.90;;;;;;;12.31;64.70;101639.44;15703703;28;20101;-61
2021/11/08 16:01:35;;;;;;;1999.90;999.90;;;;;;;12.29;64.57;101636.09;15736475;28;20082;-57
2021/11/08 16:09:11;;;;;;;1999.90;999.90;;;;;;;12.07;64.99;101654.59;15739042;28;20056;-63
2021/11/08 16:16:45;;;;;;;1999.90;999.90;;;;;;;11.89;65.66;101661.25;15729889;28;20047;-60
2021/11/08 16:24:21;;;;;;;1999.90;999.90;;;;;;;11.97;65.36;101654.88;15739294;28;20123;-63
2021/11/08 16:32:07;;;;;;;1999.90;999.90;;;;;;;11.92;65.74;101668.19;15736831;28;20075;-64
2021/11/08 16:39:41;;;;;;;1999.90;999.90;;;;;;;11.51;66.68;101675.56;15727796;28;20041;-63
2021/11/08 16:47:14;;;;;;;1999.90;999.90;;;;;;;11.37;67.57;101697.16;15739678;28;20408;-61
2021/11/08 16:54:49;;;;;;;1999.90;999.90;;;;;;;11.61;67.10;101694.06;15739458;28;20139;-61
2021/11/08 17:02:24;;;;;;;1999.90;999.90;;;;;;;11.60;67.13;101706.41;15743345;28;20040;-66
2021/11/08 17:10:10;;;;;;;1999.90;999.90;;;;;;;11.68;67.29;101714.03;15725713;28;20106;-64
2021/11/08 17:17:44;;;;;;;1999.90;999.90;;;;;;;11.72;67.01;101722.63;15715417;28;20527;-63
2021/11/08 17:25:17;;;;;;;1999.90;999.90;;;;;;;11.79;67.29;101723.88;15748769;28;20041;-63
2021/11/08 17:32:50;;;;;;;1999.90;999.90;;;;;;;11.72;68.04;101737.41;15731309;28;20120;-67
2021/11/08 17:40:24;;;;;;;1999.90;999.90;;;;;;;11.83;67.88;101741.66;15737798;28;20045;-62
2021/11/08 17:47:59;;;;;;;1999.90;999.90;;;;;;;11.80;68.21;101756.28;15747374;28;20050;-64
2021/11/08 17:55:33;;;;;;;1999.90;999.90;;;;;;;11.56;69.73;101767.69;15724299;28;20377;-64
2021/11/08 18:03:06;;;;;;;1999.90;999.90;;;;;;;11.55;69.26;101771.63;15725139;28;20101;-63
2021/11/08 18:10:41;;;;;;;1999.90;999.90;;;;;;;11.89;68.77;101775.94;15728541;28;20049;-64
2021/11/08 18:18:15;;;;;;;1999.90;999.90;;;;;;;11.83;68.90;101788.38;15729448;28;20040;-63
2021/11/08 18:26:12;;;;;;;1999.90;999.90;;;;;;;12.05;67.80;101799.56;15717991;28;20044;-64
2021/11/08 18:33:45;;;;;;;1999.90;999.90;;;;;;;12.01;68.14;101804.16;15752804;28;20036;-64
2021/11/08 18:41:21;;;;;;;1999.90;999.90;;;;;;;11.98;68.06;101803.94;15716908;28;20531;-64
2021/11/08 18:48:54;;;;;;;1999.90;999.90;;;;;;;12.31;67.03;101808.19;15708172;28;20044;-59
2021/11/08 18:56:29;;;;;;;1999.90;999.90;;;;;;;12.20;67.72;101811.56;15718570;28;20076;-59
2021/11/08 19:04:07;;;;;;;1999.90;999.90;;;;;;;12.24;67.34;101813.41;15742220;28;20075;-58
2021/11/08 19:11:43;;;;;;;1999.90;999.90;;;;;;;12.37;67.29;101806.88;15740670;28;20068;-60
2021/11/08 19:19:18;;;;;;;1999.90;999.90;;;;;;;12.34;67.42;101815.94;15724306;28;20040;-57
2021/11/08 19:26:54;;;;;;;1999.90;999.90;;;;;;;11.91;67.87;101807.22;15735352;28;20052;-62
2021/11/08 19:34:36;;;;;;;1999.90;999.90;;;;;;;12.27;66.90;101820.31;15739744;28;20072;-59
2021/11/08 19:42:10;;;;;;;1999.90;999.90;;;;;;;12.04;67.87;101825.06;15720057;28;20387;-56
2021/11/08 19:49:43;;;;;;;1999.90;999.90;;;;;;;12.10;67.61;101833.03;15741327;28;20045;-60
2021/11/08 19:57:17;;;;;;;1999.90;999.90;;;;;;;12.06;67.75;101840.41;15739242;28;20044;-61
2021/11/08 20:04:50;;;;;;;1999.90;999.90;;;;;;;11.87;68.90;101858.47;15719830;28;20048;-57
2021/11/08 20:12:28;;;;;;;1999.90;999.90;;;;;;;11.77;69.71;101859.50;15720160;28;20604;-60
2021/11/08 20:20:01;;;;;;;1999.90;999.90;;;;;;;11.61;71.58;101883.34;15738406;28;20114;-60
2021/11/08 20:27:36;;;;;;;1999.90;999.90;;;;;;;11.51;74.25;101890.81;15714686;28;20047;-59
2021/11/08 20:35:28;;;;;;;1999.90;999.90;;;;;;;11.31;76.52;101905.19;15727863;28;20037;-62
2021/11/08 20:51:10;;;;;;;1999.90;999.90;;;;;;;11.76;76.17;101897.00;15700886;28;20057;-58
2021/11/08 20:58:52;;;;;;;1999.90;999.90;;;;;;;11.88;75.31;101910.47;15730315;28;20036;-58
2021/11/08 21:06:30;;;;;;;1999.90;999.90;;;;;;;11.75;75.91;101917.72;15736096;28;20497;-59
2021/11/08 21:14:04;;;;;;;1999.90;999.90;;;;;;;11.47;77.14;101928.09;15734998;28;20041;-56
2021/11/08 21:21:38;;;;;;;1999.90;999.90;;;;;;;11.39;77.75;101928.81;15735938;28;20079;-58
2021/11/08 21:29:18;;;;;;;1999.90;999.90;;;;;;;11.65;76.90;101941.13;15713095;28;20040;-59
2021/11/08 21:44:44;;;;;;;1999.90;999.90;;;;;;;11.49;78.74;101939.78;15733490;28;20039;-61
2021/11/08 21:52:17;;;;;;;1999.90;999.90;;;;;;;11.49;78.49;101935.03;15741495;28;20465;-63
2021/11/08 21:59:51;;;;;;;1999.90;999.90;;;;;;;11.40;79.00;101953.66;15749348;28;20055;-62
2021/11/08 22:07:24;;;;;;;1999.90;999.90;;;;;;;11.46;79.07;101948.78;15733788;28;20135;-58
2021/11/08 22:14:59;;;;;;;1999.90;999.90;;;;;;;11.42;78.93;101954.16;15730303;28;20453;-64
2021/11/08 22:22:32;;;;;;;1999.90;999.90;;;;;;;11.42;79.55;101954.16;15747540;28;20092;-58
2021/11/08 22:30:07;;;;;;;1999.90;999.90;;;;;;;11.64;79.09;101956.25;15729754;28;20106;-58
2021/11/08 22:37:40;;;;;;;1999.90;999.90;;;;;;;11.52;78.83;101967.94;15729212;28;20076;-57
2021/11/08 22:45:14;;;;;;;1999.90;999.90;;;;;;;11.51;79.20;101974.66;15666292;28;20051;-56
2021/11/08 22:52:47;;;;;;;1999.90;999.90;;;;;;;11.55;79.03;101978.50;15746402;28;20047;-62
2021/11/08 23:00:24;;;;;;;1999.90;999.90;;;;;;;11.76;78.83;101980.88;15687308;28;20106;-62
2021/11/08 23:07:57;;;;;;;1999.90;999.90;;;;;;;11.75;78.58;101990.41;15726452;28;20040;-59
2021/11/08 23:15:31;;;;;;;1999.90;999.90;;;;;;;11.55;78.90;101991.66;15733223;28;20089;-58
2021/11/08 23:23:05;;;;;;;1999.90;999.90;;;;;;;11.50;79.61;102009.34;15725781;28;20130;-61
2021/11/08 23:30:40;;;;;;;1999.90;999.90;;;;;;;11.70;78.90;102004.53;15743051;28;20036;-58
2021/11/08 23:38:12;;;;;;;1999.90;999.90;;;;;;;11.66;78.65;102023.84;15742811;28;20067;-56
2021/11/08 23:45:46;;;;;;;1999.90;999.90;;;;;;;11.63;78.73;102021.69;15742424;28;20057;-61
2021/11/08 23:53:19;;;;;;;1999.90;999.90;;;;;;;11.62;79.15;102019.22;15723932;28;20055;-61
